createdAt,value
2022-08-11T00:00:00.030Z,20.95
2022-08-11T00:02:37.670Z,20.88
2022-08-11T00:05:11.138Z,20.66
2022-08-11T00:07:54.755Z,20.79
2022-08-11T00:10:24.217Z,20.52
2022-08-11T00:13:03.104Z,20.47
2022-08-11T00:15:41.163Z,20.41
2022-08-11T00:18:08.980Z,20.60
2022-08-11T00:20:38.539Z,20.40
2022-08-11T00:23:19.804Z,20.46
2022-08-11T00:25:47.730Z,20.46
2022-08-11T00:28:34.291Z,20.35
2022-08-11T00:31:07.015Z,20.27
2022-08-11T00:33:44.097Z,20.30
2022-08-11T00:36:19.825Z,20.25
2022-08-11T00:38:52.799Z,20.00
2022-08-11T00:41:34.135Z,20.15
2022-08-11T00:44:15.955Z,20.09
2022-08-11T00:46:57.498Z,19.85
2022-08-11T00:49:30.530Z,19.82
2022-08-11T00:52:38.765Z,19.96
2022-08-11T00:55:42.118Z,19.90
2022-08-11T00:58:26.449Z,19.86
2022-08-11T01:01:24.143Z,19.82
2022-08-11T01:04:09.916Z,19.62
2022-08-11T01:06:54.958Z,19.73
2022-08-11T01:09:44.661Z,19.66
2022-08-11T01:12:29.933Z,19.61
2022-08-11T01:15:15.363Z,19.55
2022-08-11T01:18:12.518Z,19.52
2022-08-11T01:21:18.216Z,19.46
2022-08-11T01:24:18.545Z,19.41
2022-08-11T01:26:57.158Z,19.38
2022-08-11T01:29:52.411Z,19.15
2022-08-11T01:32:56.802Z,19.29
2022-08-11T01:35:53.125Z,19.03
2022-08-11T01:38:44.393Z,19.24
2022-08-11T01:41:23.183Z,19.22
2022-08-11T01:44:36.190Z,19.02
2022-08-11T01:47:09.655Z,18.97
2022-08-11T01:50:08.173Z,19.13
2022-08-11T01:52:53.567Z,18.94
2022-08-11T01:55:46.546Z,19.01
2022-08-11T01:58:40.828Z,18.84
2022-08-11T02:01:23.989Z,18.95
2022-08-11T02:03:55.112Z,18.95
2022-08-11T02:06:35.212Z,18.88
2022-08-11T02:09:10.085Z,18.76
2022-08-11T02:11:38.076Z,18.83
2022-08-11T02:14:29.345Z,18.61
2022-08-11T02:17:01.821Z,18.81
2022-08-11T02:20:03.417Z,18.77
2022-08-11T02:22:29.840Z,18.74
2022-08-11T02:25:18.249Z,18.54
2022-08-11T02:27:52.841Z,18.67
2022-08-11T02:30:25.377Z,18.64
2022-08-11T02:33:20.241Z,18.45
2022-08-11T02:35:51.695Z,18.57
2022-08-11T02:38:25.498Z,18.33
2022-08-11T02:41:21.600Z,18.49
2022-08-11T02:43:58.046Z,18.51
2022-08-11T02:46:32.660Z,18.52
2022-08-11T02:49:18.121Z,18.49
2022-08-11T02:51:55.660Z,18.26
2022-08-11T02:54:34.275Z,18.44
2022-08-11T02:57:18.365Z,18.44
2022-08-11T03:00:04.883Z,18.26
2022-08-11T03:02:54.882Z,18.38
2022-08-11T03:05:32.379Z,18.19
2022-08-11T03:08:04.997Z,18.33
2022-08-11T03:10:52.990Z,18.30
2022-08-11T03:13:28.450Z,18.26
2022-08-11T03:16:16.483Z,17.88
2022-08-11T03:18:50.801Z,18.00
2022-08-11T03:21:24.398Z,17.98
2022-08-11T03:24:24.757Z,18.16
2022-08-11T03:27:04.957Z,17.93
2022-08-11T03:29:42.565Z,18.13
2022-08-11T03:32:28.192Z,18.09
2022-08-11T03:34:56.787Z,18.08
2022-08-11T03:37:48.608Z,18.04
2022-08-11T03:40:18.152Z,18.02
2022-08-11T03:43:01.282Z,17.94
2022-08-11T03:46:10.195Z,17.96
2022-08-11T03:49:06.154Z,17.95
2022-08-11T03:51:51.808Z,17.72
2022-08-11T03:54:56.776Z,17.92
2022-08-11T03:57:44.548Z,17.88
2022-08-11T04:00:19.852Z,17.86
2022-08-11T04:03:12.405Z,17.85
2022-08-11T04:05:47.748Z,17.87
2022-08-11T04:08:51.461Z,17.86
2022-08-11T04:11:43.690Z,17.84
2022-08-11T04:14:31.324Z,17.85
2022-08-11T04:17:06.795Z,17.87
2022-08-11T04:19:51.359Z,17.87
2022-08-11T04:22:36.656Z,17.88
2022-08-11T04:25:27.789Z,17.90
2022-08-11T04:28:06.379Z,17.91
2022-08-11T04:30:56.119Z,17.75
2022-08-11T04:34:06.032Z,17.93
2022-08-11T04:36:35.467Z,17.95
2022-08-11T04:40:00.277Z,17.94
2022-08-11T04:42:48.374Z,17.97
2022-08-11T04:45:40.442Z,17.99
2022-08-11T04:48:19.560Z,17.88
2022-08-11T04:51:17.068Z,17.86
2022-08-11T04:54:29.085Z,18.08
2022-08-11T04:57:05.205Z,17.99
2022-08-11T04:59:43.814Z,18.11
2022-08-11T05:02:31.189Z,17.93
2022-08-11T05:05:27.155Z,18.15
2022-08-11T05:07:59.728Z,18.18
2022-08-11T05:10:43.514Z,18.19
2022-08-11T05:13:12.178Z,18.21
2022-08-11T05:15:51.502Z,18.06
2022-08-11T05:18:23.859Z,18.23
2022-08-11T05:20:53.777Z,18.08
2022-08-11T05:23:25.342Z,18.24
2022-08-11T05:26:43.689Z,18.09
2022-08-11T05:29:20.201Z,18.07
2022-08-11T05:31:56.758Z,18.15
2022-08-11T05:34:31.993Z,18.32
2022-08-11T05:37:25.772Z,18.22
2022-08-11T05:40:00.979Z,18.30
2022-08-11T05:42:30.243Z,18.33
2022-08-11T05:45:15.772Z,18.31
2022-08-11T05:47:42.931Z,18.38
2022-08-11T05:50:15.494Z,18.40
2022-08-11T05:52:47.128Z,18.46
2022-08-11T05:55:16.430Z,18.46
2022-08-11T05:57:51.019Z,18.46
2022-08-11T06:00:19.275Z,18.49
2022-08-11T06:02:53.062Z,18.54
2022-08-11T06:05:32.024Z,18.58
2022-08-11T06:08:09.498Z,18.58
2022-08-11T06:10:40.257Z,18.39
2022-08-11T06:13:08.606Z,18.54
2022-08-11T06:15:46.254Z,18.68
2022-08-11T06:18:14.071Z,18.71
2022-08-11T06:20:55.817Z,18.75
2022-08-11T06:23:25.310Z,18.86
2022-08-11T06:25:56.470Z,18.92
2022-08-11T06:28:37.078Z,18.75
2022-08-11T06:31:13.075Z,19.01
2022-08-11T06:33:54.711Z,19.05
2022-08-11T06:36:40.100Z,19.10
2022-08-11T06:39:21.974Z,19.13
2022-08-11T06:42:00.374Z,19.13
2022-08-11T06:45:07.946Z,19.12
2022-08-11T06:47:35.427Z,19.17
2022-08-11T06:50:02.689Z,19.21
2022-08-11T06:52:36.468Z,19.09
2022-08-11T06:55:58.137Z,19.28
2022-08-11T06:58:18.210Z,19.20
2022-08-11T07:00:48.085Z,19.23
2022-08-11T07:03:18.684Z,19.48
2022-08-11T07:06:04.459Z,19.47
2022-08-11T07:09:15.281Z,19.59
2022-08-11T07:12:00.083Z,19.66
2022-08-11T07:14:32.775Z,19.65
2022-08-11T07:17:02.664Z,19.79
2022-08-11T07:19:31.016Z,19.74
2022-08-11T07:22:04.007Z,19.95
2022-08-11T07:24:59.609Z,20.13
2022-08-11T07:27:37.690Z,20.22
2022-08-11T07:30:08.503Z,20.29
2022-08-11T07:32:47.624Z,20.26
2022-08-11T07:35:20.336Z,20.37
2022-08-11T07:38:04.098Z,20.66
2022-08-11T07:40:34.804Z,20.81
2022-08-11T07:43:03.279Z,20.92
2022-08-11T07:45:30.616Z,21.08
2022-08-11T07:47:57.931Z,21.20
2022-08-11T07:50:25.389Z,21.32
2022-08-11T07:52:54.002Z,21.43
2022-08-11T07:55:50.213Z,21.37
2022-08-11T07:58:19.232Z,21.70
2022-08-11T08:00:59.163Z,21.81
2022-08-11T08:03:30.467Z,21.92
2022-08-11T08:05:58.047Z,22.05
2022-08-11T08:08:26.357Z,22.01
2022-08-11T08:10:55.691Z,22.30
2022-08-11T08:13:22.306Z,22.47
2022-08-11T08:15:49.532Z,22.54
2022-08-11T08:18:26.768Z,22.72
2022-08-11T08:20:56.728Z,22.85
2022-08-11T08:23:26.739Z,22.87
2022-08-11T08:25:53.527Z,23.09
2022-08-11T08:28:21.155Z,23.21
2022-08-11T08:30:50.414Z,23.32
2022-08-11T08:33:21.344Z,23.45
2022-08-11T08:35:54.007Z,23.50
2022-08-11T08:38:21.220Z,23.74
2022-08-11T08:40:55.967Z,23.89
2022-08-11T08:43:24.040Z,24.04
2022-08-11T08:45:56.807Z,24.15
2022-08-11T08:48:25.796Z,24.28
2022-08-11T08:51:10.969Z,24.43
2022-08-11T08:53:53.335Z,24.50
2022-08-11T08:56:27.985Z,24.70
2022-08-11T08:58:56.268Z,24.84
2022-08-11T09:01:24.306Z,24.79
2022-08-11T09:04:07.077Z,25.14
2022-08-11T09:06:38.571Z,25.24
2022-08-11T09:09:06.471Z,25.45
2022-08-11T09:11:33.149Z,25.61
2022-08-11T09:14:05.140Z,25.58
2022-08-11T09:16:34.028Z,25.86
2022-08-11T09:19:01.497Z,26.03
2022-08-11T09:21:37.159Z,26.15
2022-08-11T09:24:25.631Z,26.32
2022-08-11T09:26:53.381Z,26.51
2022-08-11T09:29:21.331Z,26.59
2022-08-11T09:31:48.276Z,26.83
2022-08-11T09:34:15.461Z,27.04
2022-08-11T09:36:43.977Z,27.08
2022-08-11T09:39:12.782Z,27.45
2022-08-11T09:42:00.687Z,27.81
2022-08-11T09:44:28.091Z,28.29
2022-08-11T09:46:56.599Z,28.67
2022-08-11T09:49:23.999Z,29.12
2022-08-11T09:52:02.209Z,29.49
2022-08-11T09:54:32.533Z,29.96
2022-08-11T09:57:02.071Z,30.46
2022-08-11T09:59:31.838Z,30.90
2022-08-11T10:02:02.035Z,31.33
2022-08-11T10:04:40.041Z,31.65
2022-08-11T10:07:07.353Z,31.98
2022-08-11T10:09:42.421Z,32.26
2022-08-11T10:12:24.902Z,32.51
2022-08-11T10:15:01.270Z,32.61
2022-08-11T10:17:36.205Z,33.06
2022-08-11T10:20:04.301Z,33.49
2022-08-11T10:22:33.096Z,33.88
2022-08-11T10:25:01.292Z,34.20
2022-08-11T10:28:17.566Z,34.55
2022-08-11T10:30:14.842Z,34.73
2022-08-11T10:32:49.356Z,34.73
2022-08-11T10:35:27.408Z,34.77
2022-08-11T10:38:06.656Z,34.83
2022-08-11T10:40:38.729Z,34.95
2022-08-11T10:43:05.435Z,35.35
2022-08-11T10:45:37.352Z,35.45
2022-08-11T10:48:06.020Z,35.43
2022-08-11T10:50:33.372Z,35.59
2022-08-11T10:53:00.927Z,35.51
2022-08-11T10:55:28.137Z,35.61
2022-08-11T10:58:04.847Z,35.76
2022-08-11T11:00:33.074Z,35.87
2022-08-11T11:03:05.381Z,35.85
2022-08-11T11:06:28.811Z,35.94
2022-08-11T11:08:41.431Z,36.06
2022-08-11T11:11:08.394Z,36.35
2022-08-11T11:13:36.937Z,36.60
2022-08-11T11:16:03.921Z,36.75
2022-08-11T11:18:33.983Z,36.67
2022-08-11T11:21:04.994Z,36.78
2022-08-11T11:23:47.552Z,36.91
2022-08-11T11:26:27.762Z,37.20
2022-08-11T11:29:15.578Z,37.39
2022-08-11T11:32:06.601Z,37.35
2022-08-11T11:34:57.212Z,37.20
2022-08-11T11:37:24.527Z,36.88
2022-08-11T11:39:53.013Z,36.68
2022-08-11T11:42:20.995Z,36.68
2022-08-11T11:44:48.470Z,36.72
2022-08-11T11:47:16.683Z,36.70
2022-08-11T11:49:44.465Z,36.71
2022-08-11T11:52:15.340Z,36.67
2022-08-11T11:54:42.270Z,36.66
2022-08-11T11:57:09.224Z,36.72
2022-08-11T11:59:35.922Z,36.82
2022-08-11T12:02:07.486Z,36.85
2022-08-11T12:04:42.760Z,36.91
2022-08-11T12:07:10.980Z,36.90
2022-08-11T12:09:38.544Z,36.91
2022-08-11T12:12:05.574Z,36.79
2022-08-11T12:14:32.287Z,36.57
2022-08-11T12:16:59.255Z,36.36
2022-08-11T12:19:27.873Z,36.06
2022-08-11T12:22:00.673Z,35.71
2022-08-11T12:24:29.472Z,35.50
2022-08-11T12:27:16.048Z,35.35
2022-08-11T12:29:50.048Z,35.19
2022-08-11T12:32:22.269Z,35.03
2022-08-11T12:34:50.183Z,34.92
2022-08-11T12:37:21.897Z,34.61
2022-08-11T12:40:16.096Z,34.55
2022-08-11T12:42:37.607Z,34.31
2022-08-11T12:45:22.532Z,34.13
2022-08-11T12:48:40.106Z,34.08
2022-08-11T12:50:39.988Z,33.92
2022-08-11T12:53:09.479Z,33.70
2022-08-11T12:55:36.660Z,33.79
2022-08-11T12:58:05.310Z,33.73
2022-08-11T13:00:32.851Z,33.68
2022-08-11T13:03:00.074Z,33.65
2022-08-11T13:05:27.820Z,33.63
2022-08-11T13:07:55.447Z,33.58
2022-08-11T13:12:49.751Z,33.52
2022-08-11T13:15:24.522Z,33.53
2022-08-11T13:17:53.794Z,33.48
2022-08-11T13:20:23.424Z,33.54
2022-08-11T13:22:55.440Z,33.37
2022-08-11T13:25:24.768Z,33.59
2022-08-11T13:30:28.816Z,33.70
2022-08-11T13:32:55.389Z,33.73
2022-08-11T13:35:22.781Z,33.71
2022-08-11T13:38:18.949Z,33.73
2022-08-11T13:40:55.312Z,33.74
2022-08-11T13:43:24.052Z,33.75
2022-08-11T13:45:53.326Z,33.67
2022-08-11T13:48:20.007Z,33.91
2022-08-11T13:50:47.349Z,34.01
2022-08-11T13:53:20.303Z,34.08
2022-08-11T13:55:51.822Z,34.15
2022-08-11T13:58:39.717Z,34.26
2022-08-11T14:02:03.710Z,34.47
2022-08-11T14:04:29.887Z,34.73
2022-08-11T14:06:50.880Z,35.03
2022-08-11T14:09:25.114Z,35.36
2022-08-11T14:12:23.205Z,35.78
2022-08-11T14:14:49.497Z,36.23
2022-08-11T14:17:35.931Z,36.80
2022-08-11T14:20:38.146Z,37.22
2022-08-11T14:22:57.171Z,37.86
2022-08-11T14:25:24.936Z,38.26
2022-08-11T14:28:29.732Z,38.67
2022-08-11T14:31:01.531Z,39.15
2022-08-11T14:33:58.706Z,39.52
2022-08-11T14:36:17.694Z,39.81
2022-08-11T14:38:44.767Z,40.22
2022-08-11T14:41:11.829Z,40.48
2022-08-11T14:44:03.341Z,40.83
2022-08-11T14:46:26.477Z,41.13
2022-08-11T14:48:53.220Z,41.40
2022-08-11T14:51:22.257Z,41.67
2022-08-11T14:53:58.977Z,41.91
2022-08-11T14:56:25.927Z,42.04
2022-08-11T14:58:52.575Z,42.23
2022-08-11T15:01:19.692Z,42.46
2022-08-11T15:04:06.148Z,42.74
2022-08-11T15:06:33.519Z,42.93
2022-08-11T15:09:00.321Z,42.97
2022-08-11T15:11:31.400Z,42.94
2022-08-11T15:14:01.680Z,43.02
2022-08-11T15:16:29.501Z,43.17
2022-08-11T15:18:57.138Z,43.32
2022-08-11T15:21:23.683Z,43.42
2022-08-11T15:23:50.241Z,43.54
2022-08-11T15:26:22.852Z,43.60
2022-08-11T15:28:51.298Z,43.68
2022-08-11T15:31:21.604Z,43.61
2022-08-11T15:33:53.018Z,43.66
2022-08-11T15:36:20.674Z,43.83
2022-08-11T15:39:19.495Z,43.88
2022-08-11T15:42:23.011Z,43.69
2022-08-11T15:45:02.686Z,43.64
2022-08-11T15:47:41.705Z,43.92
2022-08-11T15:50:14.054Z,44.14
2022-08-11T15:52:49.542Z,44.10
2022-08-11T15:55:16.612Z,44.43
2022-08-11T15:57:45.963Z,44.66
2022-08-11T16:00:12.732Z,44.80
2022-08-11T16:02:39.839Z,44.85
2022-08-11T16:05:11.441Z,44.88
2022-08-11T16:07:40.964Z,44.88
2022-08-11T16:10:13.998Z,45.06
2022-08-11T16:12:57.640Z,45.20
2022-08-11T16:15:24.567Z,45.08
2022-08-11T16:18:06.632Z,44.94
2022-08-11T16:20:34.905Z,44.99
2022-08-11T16:23:04.846Z,45.12
2022-08-11T16:27:02.079Z,45.25
2022-08-11T16:28:23.137Z,45.30
2022-08-11T16:30:50.983Z,45.41
2022-08-11T16:33:48.953Z,45.57
2022-08-11T16:36:07.909Z,45.74
2022-08-11T16:38:37.176Z,45.74
2022-08-11T16:41:11.592Z,45.87
2022-08-11T16:43:42.100Z,45.87
2022-08-11T16:46:10.019Z,45.89
2022-08-11T16:48:38.816Z,45.88
2022-08-11T16:51:12.324Z,45.80
2022-08-11T16:54:03.389Z,46.01
2022-08-11T16:56:36.674Z,46.11
2022-08-11T16:59:08.283Z,45.82
2022-08-11T17:01:35.659Z,45.33
2022-08-11T17:04:15.888Z,44.74
2022-08-11T17:06:47.468Z,44.36
2022-08-11T17:09:21.910Z,43.81
2022-08-11T17:11:56.113Z,43.13
2022-08-11T17:14:37.084Z,42.23
2022-08-11T17:17:11.213Z,41.63
2022-08-11T17:20:40.712Z,40.91
2022-08-11T17:22:30.401Z,40.32
2022-08-11T17:24:59.194Z,39.83
2022-08-11T17:27:28.179Z,39.18
2022-08-11T17:29:58.087Z,38.62
2022-08-11T17:32:53.960Z,38.09
2022-08-11T17:35:28.032Z,37.61
2022-08-11T17:37:57.143Z,37.19
2022-08-11T17:40:24.475Z,36.92
2022-08-11T17:42:56.469Z,36.60
2022-08-11T17:45:24.386Z,36.27
2022-08-11T17:47:51.283Z,35.88
2022-08-11T17:50:18.802Z,35.50
2022-08-11T17:52:47.656Z,35.22
2022-08-11T17:55:15.962Z,34.89
2022-08-11T17:58:03.142Z,34.63
2022-08-11T18:00:30.288Z,34.45
2022-08-11T18:02:58.992Z,34.26
2022-08-11T18:05:31.481Z,34.00
2022-08-11T18:08:00.958Z,33.79
2022-08-11T18:10:29.763Z,33.51
2022-08-11T18:12:57.899Z,33.34
2022-08-11T18:15:24.547Z,33.13
2022-08-11T18:17:58.403Z,32.91
2022-08-11T18:20:25.332Z,32.76
2022-08-11T18:22:55.167Z,32.58
2022-08-11T18:25:26.245Z,32.37
2022-08-11T18:27:55.479Z,32.34
2022-08-11T18:30:24.079Z,32.07
2022-08-11T18:33:09.173Z,32.06
2022-08-11T18:35:42.316Z,32.03
2022-08-11T18:38:11.633Z,31.94
2022-08-11T18:40:39.150Z,31.78
2022-08-11T18:43:08.946Z,31.53
2022-08-11T18:45:45.694Z,31.51
2022-08-11T18:48:21.945Z,31.41
2022-08-11T18:51:30.896Z,31.21
2022-08-11T18:53:44.144Z,30.92
2022-08-11T18:56:11.877Z,30.93
2022-08-11T18:58:43.190Z,30.87
2022-08-11T19:01:13.723Z,30.75
2022-08-11T19:03:43.458Z,30.62
2022-08-11T19:06:39.853Z,30.39
2022-08-11T19:09:08.853Z,30.37
2022-08-11T19:11:42.499Z,30.00
2022-08-11T19:14:12.635Z,30.04
2022-08-11T19:16:41.381Z,29.88
2022-08-11T19:19:10.160Z,29.87
2022-08-11T19:21:37.445Z,29.78
2022-08-11T19:24:06.680Z,29.77
2022-08-11T19:26:34.223Z,29.66
2022-08-11T19:29:02.545Z,29.57
2022-08-11T19:31:30.355Z,29.46
2022-08-11T19:34:02.438Z,29.31
2022-08-11T19:36:38.438Z,29.23
2022-08-11T19:39:05.121Z,29.10
2022-08-11T19:41:56.649Z,29.03
2022-08-11T19:44:21.726Z,28.62
2022-08-11T19:46:50.925Z,28.70
2022-08-11T19:49:19.028Z,28.65
2022-08-11T19:51:46.357Z,28.62
2022-08-11T19:54:14.249Z,28.52
2022-08-11T19:56:42.928Z,28.26
2022-08-11T19:59:10.532Z,28.26
2022-08-11T20:01:37.818Z,28.19
2022-08-11T20:04:24.303Z,28.05
2022-08-11T20:06:54.671Z,27.92
2022-08-11T20:09:22.455Z,27.71
2022-08-11T20:11:53.082Z,27.71
2022-08-11T20:14:21.319Z,27.62
2022-08-11T20:16:48.071Z,27.47
2022-08-11T20:19:16.486Z,27.29
2022-08-11T20:21:44.841Z,27.18
2022-08-11T20:24:13.252Z,27.04
2022-08-11T20:26:40.027Z,26.87
2022-08-11T20:29:08.616Z,26.81
2022-08-11T20:31:36.482Z,26.79
2022-08-11T20:34:03.655Z,26.72
2022-08-11T20:36:34.272Z,26.63
2022-08-11T20:39:01.971Z,26.53
2022-08-11T20:41:30.148Z,26.42
2022-08-11T20:44:07.050Z,26.39
2022-08-11T20:46:38.595Z,26.27
2022-08-11T20:49:10.526Z,26.23
2022-08-11T20:51:39.941Z,26.14
2022-08-11T20:54:07.695Z,26.01
2022-08-11T20:56:35.546Z,25.98
2022-08-11T20:59:18.915Z,25.90
2022-08-11T21:01:51.993Z,25.78
2022-08-11T21:04:20.035Z,25.67
2022-08-11T21:06:47.444Z,25.56
2022-08-11T21:09:19.553Z,25.33
2022-08-11T21:11:48.893Z,25.37
2022-08-11T21:14:17.216Z,25.32
2022-08-11T21:16:47.547Z,25.18
2022-08-11T21:19:59.872Z,24.87
2022-08-11T21:22:19.261Z,24.95
2022-08-11T21:24:48.200Z,24.74
2022-08-11T21:27:21.756Z,24.72
2022-08-11T21:29:52.958Z,24.72
2022-08-11T21:32:21.468Z,24.64
2022-08-11T21:34:49.940Z,24.54
2022-08-11T21:37:18.073Z,24.20
2022-08-11T21:39:47.396Z,24.39
2022-08-11T21:42:14.423Z,24.19
2022-08-11T21:44:43.134Z,24.05
2022-08-11T21:47:10.981Z,24.16
2022-08-11T21:49:40.575Z,24.09
2022-08-11T21:52:07.273Z,24.01
2022-08-11T21:54:33.880Z,23.90
2022-08-11T21:57:01.969Z,23.79
2022-08-11T21:59:41.830Z,23.79
2022-08-11T22:02:12.588Z,23.73
2022-08-11T22:04:40.372Z,23.63
2022-08-11T22:07:07.792Z,23.62
2022-08-11T22:09:34.551Z,23.56
2022-08-11T22:12:29.274Z,23.48
2022-08-11T22:14:48.077Z,23.44
2022-08-11T22:17:14.622Z,23.35
2022-08-11T22:19:41.662Z,23.29
2022-08-11T22:22:08.421Z,23.19
2022-08-11T22:24:38.815Z,23.13
2022-08-11T22:27:05.406Z,23.12
2022-08-11T22:29:50.105Z,23.07
2022-08-11T22:32:19.495Z,23.01
2022-08-11T22:34:53.536Z,22.96
2022-08-11T22:37:27.206Z,22.90
2022-08-11T22:40:01.549Z,22.82
2022-08-11T22:42:34.165Z,22.83
2022-08-11T22:45:01.474Z,22.80
2022-08-11T22:47:36.400Z,22.77
2022-08-11T22:50:09.133Z,22.72
2022-08-11T22:52:36.921Z,22.70
2022-08-11T22:55:04.051Z,22.67
2022-08-11T22:57:31.545Z,22.62
2022-08-11T22:59:58.973Z,22.57
2022-08-11T23:02:28.018Z,22.51
2022-08-11T23:04:55.284Z,22.49
2022-08-11T23:07:49.917Z,22.41
2022-08-11T23:10:09.642Z,22.41
2022-08-11T23:12:37.180Z,22.32
2022-08-11T23:15:04.397Z,22.36
2022-08-11T23:17:32.165Z,22.32
2022-08-11T23:20:08.475Z,22.27
2022-08-11T23:22:49.919Z,22.20
2022-08-11T23:25:18.095Z,22.17
2022-08-11T23:27:45.923Z,22.13
2022-08-11T23:30:12.749Z,22.07
2022-08-11T23:32:41.979Z,22.02
2022-08-11T23:35:40.283Z,21.96
2022-08-11T23:37:55.453Z,21.88
2022-08-11T23:40:26.269Z,21.86
2022-08-11T23:42:53.075Z,21.78
2022-08-11T23:45:22.821Z,21.75
2022-08-11T23:47:51.231Z,21.70
2022-08-11T23:50:19.072Z,21.57
2022-08-11T23:52:45.730Z,21.56
2022-08-11T23:55:12.411Z,21.36
2022-08-11T23:57:47.655Z,21.43
